Terminal Aerodrome Forecast
Issued by NWS

Home | Current Version | Previous Version | Graphics & Text | Print | Product List | Glossary On
Versions: 1 2 3 4 5 6 7 8 9 10 11 12 13 14 15 16 17 18 19 20 21 22 23 24
000
FTUS43 KLOT 191120
TAFORD
TAF
KORD 191120Z 1912/2018 26007KT P6SM FEW250
     FM191400 32005KT P6SM FEW250
     FM192100 14005KT P6SM FEW250
     FM201500 19007KT P6SM SKC=

USA.gov is the U.S. government's official web portal to all federal, state and local government web resources and services.